sensor_id;sensor_type;location;lat;lon;timestamp;temperature;humidity
74809;DHT22;63338;39.544;2.596;2023-02-22T00:00:41;13.10;87.30
74809;DHT22;63338;39.544;2.596;2023-02-22T00:03:17;13.10;87.20
74809;DHT22;63338;39.544;2.596;2023-02-22T00:05:44;13.10;86.70
74809;DHT22;63338;39.544;2.596;2023-02-22T00:08:13;13.10;86.70
74809;DHT22;63338;39.544;2.596;2023-02-22T00:10:39;13.10;86.20
74809;DHT22;63338;39.544;2.596;2023-02-22T00:13:07;13.10;86.10
74809;DHT22;63338;39.544;2.596;2023-02-22T00:15:34;13.20;86.10
74809;DHT22;63338;39.544;2.596;2023-02-22T00:18:01;13.10;86.20
74809;DHT22;63338;39.544;2.596;2023-02-22T00:20:27;13.10;86.20
74809;DHT22;63338;39.544;2.596;2023-02-22T00:22:53;13.10;86.20
74809;DHT22;63338;39.544;2.596;2023-02-22T00:25:23;13.10;86.10
74809;DHT22;63338;39.544;2.596;2023-02-22T00:27:50;13.00;86.40
74809;DHT22;63338;39.544;2.596;2023-02-22T00:30:26;13.10;86.40
74809;DHT22;63338;39.544;2.596;2023-02-22T00:32:54;13.00;86.40
74809;DHT22;63338;39.544;2.596;2023-02-22T00:35:25;12.90;86.70
74809;DHT22;63338;39.544;2.596;2023-02-22T00:37:54;12.90;86.70
74809;DHT22;63338;39.544;2.596;2023-02-22T00:40:23;12.90;87.00
74809;DHT22;63338;39.544;2.596;2023-02-22T00:42:50;12.80;87.10
74809;DHT22;63338;39.544;2.596;2023-02-22T00:45:19;12.90;87.20
74809;DHT22;63338;39.544;2.596;2023-02-22T00:47:45;12.80;87.20
74809;DHT22;63338;39.544;2.596;2023-02-22T00:50:12;12.80;87.40
74809;DHT22;63338;39.544;2.596;2023-02-22T00:52:41;12.80;87.50
74809;DHT22;63338;39.544;2.596;2023-02-22T00:55:10;12.70;87.60
74809;DHT22;63338;39.544;2.596;2023-02-22T00:57:36;12.70;87.50
74809;DHT22;63338;39.544;2.596;2023-02-22T01:00:05;12.70;87.70
74809;DHT22;63338;39.544;2.596;2023-02-22T01:02:38;12.70;89.10
74809;DHT22;63338;39.544;2.596;2023-02-22T01:05:07;12.50;89.10
74809;DHT22;63338;39.544;2.596;2023-02-22T01:07:33;12.70;88.00
74809;DHT22;63338;39.544;2.596;2023-02-22T01:10:00;12.50;89.40
74809;DHT22;63338;39.544;2.596;2023-02-22T01:12:29;12.60;89.70
74809;DHT22;63338;39.544;2.596;2023-02-22T01:14:58;12.60;89.80
74809;DHT22;63338;39.544;2.596;2023-02-22T01:17:24;12.70;90.20
74809;DHT22;63338;39.544;2.596;2023-02-22T01:19:53;12.70;90.50
74809;DHT22;63338;39.544;2.596;2023-02-22T01:22:20;12.70;89.60
74809;DHT22;63338;39.544;2.596;2023-02-22T01:24:47;12.80;89.70
74809;DHT22;63338;39.544;2.596;2023-02-22T01:27:14;12.80;89.30
74809;DHT22;63338;39.544;2.596;2023-02-22T01:29:43;12.80;89.30
74809;DHT22;63338;39.544;2.596;2023-02-22T01:32:09;12.90;89.50
74809;DHT22;63338;39.544;2.596;2023-02-22T01:34:38;12.90;89.10
74809;DHT22;63338;39.544;2.596;2023-02-22T01:37:04;12.90;89.30
74809;DHT22;63338;39.544;2.596;2023-02-22T01:39:33;12.90;89.10
74809;DHT22;63338;39.544;2.596;2023-02-22T01:41:59;12.90;89.00
74809;DHT22;63338;39.544;2.596;2023-02-22T01:44:31;13.00;88.90
74809;DHT22;63338;39.544;2.596;2023-02-22T01:46:57;13.00;89.60
74809;DHT22;63338;39.544;2.596;2023-02-22T01:49:27;13.00;89.50
74809;DHT22;63338;39.544;2.596;2023-02-22T01:51:56;13.10;89.50
74809;DHT22;63338;39.544;2.596;2023-02-22T01:54:30;13.00;89.70
74809;DHT22;63338;39.544;2.596;2023-02-22T01:57:07;13.10;89.70
74809;DHT22;63338;39.544;2.596;2023-02-22T01:59:37;13.10;89.20
74809;DHT22;63338;39.544;2.596;2023-02-22T02:02:04;13.10;88.90
74809;DHT22;63338;39.544;2.596;2023-02-22T02:04:31;13.10;89.50
74809;DHT22;63338;39.544;2.596;2023-02-22T02:07:03;13.10;89.50
74809;DHT22;63338;39.544;2.596;2023-02-22T02:09:46;13.10;89.60
74809;DHT22;63338;39.544;2.596;2023-02-22T02:12:16;13.20;89.40
74809;DHT22;63338;39.544;2.596;2023-02-22T02:14:44;13.20;89.20
74809;DHT22;63338;39.544;2.596;2023-02-22T02:17:12;13.20;89.20
74809;DHT22;63338;39.544;2.596;2023-02-22T02:36:05;13.20;88.70
74809;DHT22;63338;39.544;2.596;2023-02-22T02:38:47;13.20;88.40
74809;DHT22;63338;39.544;2.596;2023-02-22T02:41:41;13.20;88.30
74809;DHT22;63338;39.544;2.596;2023-02-22T02:47:02;13.20;88.20
74809;DHT22;63338;39.544;2.596;2023-02-22T02:49:34;13.10;88.20
74809;DHT22;63338;39.544;2.596;2023-02-22T02:52:02;13.10;88.20
74809;DHT22;63338;39.544;2.596;2023-02-22T02:54:29;13.10;88.10
74809;DHT22;63338;39.544;2.596;2023-02-22T02:56:57;13.00;88.20
74809;DHT22;63338;39.544;2.596;2023-02-22T02:59:26;13.00;88.10
74809;DHT22;63338;39.544;2.596;2023-02-22T03:04:50;12.90;88.40
74809;DHT22;63338;39.544;2.596;2023-02-22T03:08:22;12.80;88.50
74809;DHT22;63338;39.544;2.596;2023-02-22T03:21:44;12.70;89.80
74809;DHT22;63338;39.544;2.596;2023-02-22T03:24:52;12.80;88.60
74809;DHT22;63338;39.544;2.596;2023-02-22T03:27:53;12.60;89.70
74809;DHT22;63338;39.544;2.596;2023-02-22T03:33:01;12.70;89.00
74809;DHT22;63338;39.544;2.596;2023-02-22T03:35:37;12.50;90.20
74809;DHT22;63338;39.544;2.596;2023-02-22T03:38:08;12.60;90.20
74809;DHT22;63338;39.544;2.596;2023-02-22T03:40:41;12.40;90.30
74809;DHT22;63338;39.544;2.596;2023-02-22T03:43:15;12.50;90.20
74809;DHT22;63338;39.544;2.596;2023-02-22T03:45:45;12.60;90.20
74809;DHT22;63338;39.544;2.596;2023-02-22T03:48:37;12.40;89.80
74809;DHT22;63338;39.544;2.596;2023-02-22T03:51:06;12.40;89.70
74809;DHT22;63338;39.544;2.596;2023-02-22T03:53:33;12.30;89.60
74809;DHT22;63338;39.544;2.596;2023-02-22T03:56:03;12.20;89.50
74809;DHT22;63338;39.544;2.596;2023-02-22T03:58:33;12.10;89.40
74809;DHT22;63338;39.544;2.596;2023-02-22T04:01:01;12.00;89.70
74809;DHT22;63338;39.544;2.596;2023-02-22T04:03:28;11.90;89.80
74809;DHT22;63338;39.544;2.596;2023-02-22T04:05:54;12.00;89.70
74809;DHT22;63338;39.544;2.596;2023-02-22T04:08:20;11.90;90.10
74809;DHT22;63338;39.544;2.596;2023-02-22T04:10:46;12.00;90.40
74809;DHT22;63338;39.544;2.596;2023-02-22T04:13:20;11.80;90.20
74809;DHT22;63338;39.544;2.596;2023-02-22T04:15:47;11.70;90.00
74809;DHT22;63338;39.544;2.596;2023-02-22T04:18:16;11.60;89.80
74809;DHT22;63338;39.544;2.596;2023-02-22T04:20:42;11.70;89.80
74809;DHT22;63338;39.544;2.596;2023-02-22T04:23:09;11.60;89.60
74809;DHT22;63338;39.544;2.596;2023-02-22T04:25:36;11.60;89.60
74809;DHT22;63338;39.544;2.596;2023-02-22T04:28:02;11.50;89.40
74809;DHT22;63338;39.544;2.596;2023-02-22T04:30:28;11.50;89.40
74809;DHT22;63338;39.544;2.596;2023-02-22T04:32:56;11.40;89.70
74809;DHT22;63338;39.544;2.596;2023-02-22T04:35:22;11.40;89.70
74809;DHT22;63338;39.544;2.596;2023-02-22T04:37:48;11.30;89.60
74809;DHT22;63338;39.544;2.596;2023-02-22T04:40:16;11.30;89.60
74809;DHT22;63338;39.544;2.596;2023-02-22T04:42:42;11.20;90.00
74809;DHT22;63338;39.544;2.596;2023-02-22T04:45:09;11.10;90.20
74809;DHT22;63338;39.544;2.596;2023-02-22T04:47:36;11.20;90.70
74809;DHT22;63338;39.544;2.596;2023-02-22T04:50:06;11.20;91.00
74809;DHT22;63338;39.544;2.596;2023-02-22T04:52:34;11.20;91.10
74809;DHT22;63338;39.544;2.596;2023-02-22T04:55:00;11.10;91.10
74809;DHT22;63338;39.544;2.596;2023-02-22T04:57:27;11.10;91.30
74809;DHT22;63338;39.544;2.596;2023-02-22T04:59:53;11.10;91.40
74809;DHT22;63338;39.544;2.596;2023-02-22T05:02:19;11.10;91.50
74809;DHT22;63338;39.544;2.596;2023-02-22T05:04:49;11.10;91.50
74809;DHT22;63338;39.544;2.596;2023-02-22T05:07:15;11.10;91.70
74809;DHT22;63338;39.544;2.596;2023-02-22T05:09:42;11.00;91.70
74809;DHT22;63338;39.544;2.596;2023-02-22T05:12:11;11.00;91.90
74809;DHT22;63338;39.544;2.596;2023-02-22T05:14:37;11.10;91.70
74809;DHT22;63338;39.544;2.596;2023-02-22T05:17:04;11.00;91.30
74809;DHT22;63338;39.544;2.596;2023-02-22T05:19:30;11.00;90.90
74809;DHT22;63338;39.544;2.596;2023-02-22T05:21:56;10.90;90.70
74809;DHT22;63338;39.544;2.596;2023-02-22T05:24:22;11.00;90.80
74809;DHT22;63338;39.544;2.596;2023-02-22T05:26:48;10.90;90.90
74809;DHT22;63338;39.544;2.596;2023-02-22T05:29:15;11.00;90.40
74809;DHT22;63338;39.544;2.596;2023-02-22T05:31:42;11.00;90.50
74809;DHT22;63338;39.544;2.596;2023-02-22T05:34:08;11.00;90.20
74809;DHT22;63338;39.544;2.596;2023-02-22T05:36:34;10.90;90.20
74809;DHT22;63338;39.544;2.596;2023-02-22T05:39:00;10.90;90.40
74809;DHT22;63338;39.544;2.596;2023-02-22T05:41:27;10.90;90.30
74809;DHT22;63338;39.544;2.596;2023-02-22T05:43:53;10.80;90.30
74809;DHT22;63338;39.544;2.596;2023-02-22T05:46:19;10.80;90.50
74809;DHT22;63338;39.544;2.596;2023-02-22T05:48:45;10.80;90.50
74809;DHT22;63338;39.544;2.596;2023-02-22T05:51:11;10.80;90.30
74809;DHT22;63338;39.544;2.596;2023-02-22T05:53:38;10.70;90.70
74809;DHT22;63338;39.544;2.596;2023-02-22T05:56:07;10.70;91.10
74809;DHT22;63338;39.544;2.596;2023-02-22T05:58:33;10.70;91.20
74809;DHT22;63338;39.544;2.596;2023-02-22T06:00:59;10.70;91.20
74809;DHT22;63338;39.544;2.596;2023-02-22T06:03:25;10.70;91.00
74809;DHT22;63338;39.544;2.596;2023-02-22T06:05:52;10.70;90.80
74809;DHT22;63338;39.544;2.596;2023-02-22T06:08:18;10.70;90.50
74809;DHT22;63338;39.544;2.596;2023-02-22T06:10:44;10.60;91.10
74809;DHT22;63338;39.544;2.596;2023-02-22T06:13:10;10.70;90.90
74809;DHT22;63338;39.544;2.596;2023-02-22T06:15:36;10.60;90.30
74809;DHT22;63338;39.544;2.596;2023-02-22T06:18:02;10.60;90.20
74809;DHT22;63338;39.544;2.596;2023-02-22T06:20:29;10.50;90.10
74809;DHT22;63338;39.544;2.596;2023-02-22T06:22:57;10.50;89.90
74809;DHT22;63338;39.544;2.596;2023-02-22T06:25:28;10.50;89.80
74809;DHT22;63338;39.544;2.596;2023-02-22T06:27:59;10.40;89.90
74809;DHT22;63338;39.544;2.596;2023-02-22T06:30:29;10.40;90.10
74809;DHT22;63338;39.544;2.596;2023-02-22T06:32:55;10.50;90.10
74809;DHT22;63338;39.544;2.596;2023-02-22T06:35:22;10.30;89.90
74809;DHT22;63338;39.544;2.596;2023-02-22T06:37:48;10.30;90.10
74809;DHT22;63338;39.544;2.596;2023-02-22T06:40:15;10.30;90.00
74809;DHT22;63338;39.544;2.596;2023-02-22T06:42:41;10.30;90.10
74809;DHT22;63338;39.544;2.596;2023-02-22T06:45:11;10.30;90.00
74809;DHT22;63338;39.544;2.596;2023-02-22T06:47:40;10.40;89.70
74809;DHT22;63338;39.544;2.596;2023-02-22T06:50:16;10.30;89.90
74809;DHT22;63338;39.544;2.596;2023-02-22T06:52:43;10.20;89.70
74809;DHT22;63338;39.544;2.596;2023-02-22T06:55:09;10.30;89.90
74809;DHT22;63338;39.544;2.596;2023-02-22T06:57:35;10.30;90.40
74809;DHT22;63338;39.544;2.596;2023-02-22T07:00:01;10.40;90.30
74809;DHT22;63338;39.544;2.596;2023-02-22T07:02:27;10.40;90.40
74809;DHT22;63338;39.544;2.596;2023-02-22T07:04:54;10.40;90.60
74809;DHT22;63338;39.544;2.596;2023-02-22T07:07:21;10.50;90.80
74809;DHT22;63338;39.544;2.596;2023-02-22T07:09:48;10.60;90.80
74809;DHT22;63338;39.544;2.596;2023-02-22T07:12:15;10.60;90.80
74809;DHT22;63338;39.544;2.596;2023-02-22T07:14:41;10.70;90.70
74809;DHT22;63338;39.544;2.596;2023-02-22T07:17:08;10.80;90.70
74809;DHT22;63338;39.544;2.596;2023-02-22T07:19:36;10.80;91.10
74809;DHT22;63338;39.544;2.596;2023-02-22T07:22:02;11.00;91.00
74809;DHT22;63338;39.544;2.596;2023-02-22T07:24:29;11.00;91.10
74809;DHT22;63338;39.544;2.596;2023-02-22T07:26:55;11.00;91.10
74809;DHT22;63338;39.544;2.596;2023-02-22T07:29:21;11.10;91.00
74809;DHT22;63338;39.544;2.596;2023-02-22T07:31:48;11.30;91.00
74809;DHT22;63338;39.544;2.596;2023-02-22T07:34:14;11.30;91.00
74809;DHT22;63338;39.544;2.596;2023-02-22T07:36:40;11.40;90.90
74809;DHT22;63338;39.544;2.596;2023-02-22T07:39:06;11.40;90.90
74809;DHT22;63338;39.544;2.596;2023-02-22T07:41:33;11.60;90.80
74809;DHT22;63338;39.544;2.596;2023-02-22T07:43:59;11.60;90.90
74809;DHT22;63338;39.544;2.596;2023-02-22T07:46:26;11.70;90.90
74809;DHT22;63338;39.544;2.596;2023-02-22T07:48:52;11.80;90.90
74809;DHT22;63338;39.544;2.596;2023-02-22T07:51:18;11.90;90.90
74809;DHT22;63338;39.544;2.596;2023-02-22T07:53:46;12.20;90.90
74809;DHT22;63338;39.544;2.596;2023-02-22T07:56:13;12.20;90.80
74809;DHT22;63338;39.544;2.596;2023-02-22T07:58:39;12.20;90.60
74809;DHT22;63338;39.544;2.596;2023-02-22T08:01:07;12.50;90.50
74809;DHT22;63338;39.544;2.596;2023-02-22T08:03:36;12.40;90.10
74809;DHT22;63338;39.544;2.596;2023-02-22T08:06:04;12.60;89.80
74809;DHT22;63338;39.544;2.596;2023-02-22T08:08:31;12.80;88.30
74809;DHT22;63338;39.544;2.596;2023-02-22T08:10:57;12.80;87.60
74809;DHT22;63338;39.544;2.596;2023-02-22T08:13:23;13.00;86.40
74809;DHT22;63338;39.544;2.596;2023-02-22T08:15:51;13.10;86.00
74809;DHT22;63338;39.544;2.596;2023-02-22T08:18:19;13.20;85.60
74809;DHT22;63338;39.544;2.596;2023-02-22T08:20:48;13.30;85.70
74809;DHT22;63338;39.544;2.596;2023-02-22T08:23:16;13.40;85.40
74809;DHT22;63338;39.544;2.596;2023-02-22T08:25:43;13.60;84.70
74809;DHT22;63338;39.544;2.596;2023-02-22T08:28:14;13.70;84.40
74809;DHT22;63338;39.544;2.596;2023-02-22T08:30:41;13.90;84.30
74809;DHT22;63338;39.544;2.596;2023-02-22T08:33:09;14.10;83.90
74809;DHT22;63338;39.544;2.596;2023-02-22T08:35:42;14.40;83.30
74809;DHT22;63338;39.544;2.596;2023-02-22T08:38:16;14.70;82.40
74809;DHT22;63338;39.544;2.596;2023-02-22T08:40:42;14.80;81.70
74809;DHT22;63338;39.544;2.596;2023-02-22T08:43:08;15.10;81.50
74809;DHT22;63338;39.544;2.596;2023-02-22T08:45:34;15.60;79.70
74809;DHT22;63338;39.544;2.596;2023-02-22T08:48:00;16.00;78.40
74809;DHT22;63338;39.544;2.596;2023-02-22T08:50:29;16.30;77.20
74809;DHT22;63338;39.544;2.596;2023-02-22T08:52:58;16.40;76.20
74809;DHT22;63338;39.544;2.596;2023-02-22T08:55:27;16.30;76.80
74809;DHT22;63338;39.544;2.596;2023-02-22T08:57:54;16.30;77.60
74809;DHT22;63338;39.544;2.596;2023-02-22T09:00:21;16.30;78.10
74809;DHT22;63338;39.544;2.596;2023-02-22T09:02:51;16.10;79.00
74809;DHT22;63338;39.544;2.596;2023-02-22T09:05:18;15.90;79.80
74809;DHT22;63338;39.544;2.596;2023-02-22T09:07:45;15.80;80.70
74809;DHT22;63338;39.544;2.596;2023-02-22T09:10:14;15.50;81.30
74809;DHT22;63338;39.544;2.596;2023-02-22T09:12:41;15.50;81.80
74809;DHT22;63338;39.544;2.596;2023-02-22T09:15:11;15.40;83.30
74809;DHT22;63338;39.544;2.596;2023-02-22T09:17:37;15.30;83.70
74809;DHT22;63338;39.544;2.596;2023-02-22T09:20:05;15.10;84.20
74809;DHT22;63338;39.544;2.596;2023-02-22T09:22:32;15.00;84.80
74809;DHT22;63338;39.544;2.596;2023-02-22T09:24:59;14.70;85.40
74809;DHT22;63338;39.544;2.596;2023-02-22T09:27:25;14.70;85.70
74809;DHT22;63338;39.544;2.596;2023-02-22T09:29:53;14.70;86.20
74809;DHT22;63338;39.544;2.596;2023-02-22T09:32:22;14.60;86.40
74809;DHT22;63338;39.544;2.596;2023-02-22T09:34:49;14.50;87.00
74809;DHT22;63338;39.544;2.596;2023-02-22T09:37:17;14.50;87.10
74809;DHT22;63338;39.544;2.596;2023-02-22T09:39:43;14.40;87.70
74809;DHT22;63338;39.544;2.596;2023-02-22T09:42:29;14.40;87.70
74809;DHT22;63338;39.544;2.596;2023-02-22T09:47:46;14.70;87.70
74809;DHT22;63338;39.544;2.596;2023-02-22T09:50:16;15.00;87.60
74809;DHT22;63338;39.544;2.596;2023-02-22T09:55:45;16.00;85.00
74809;DHT22;63338;39.544;2.596;2023-02-22T09:58:32;16.90;82.70
74809;DHT22;63338;39.544;2.596;2023-02-22T10:06:23;19.50;75.20
74809;DHT22;63338;39.544;2.596;2023-02-22T10:08:56;20.40;72.30
74809;DHT22;63338;39.544;2.596;2023-02-22T10:12:13;20.60;71.10
74809;DHT22;63338;39.544;2.596;2023-02-22T10:14:39;21.20;68.70
74809;DHT22;63338;39.544;2.596;2023-02-22T10:17:19;21.60;67.50
74809;DHT22;63338;39.544;2.596;2023-02-22T10:22:59;21.90;67.10
74809;DHT22;63338;39.544;2.596;2023-02-22T10:25:30;21.70;66.80
74809;DHT22;63338;39.544;2.596;2023-02-22T10:28:05;21.70;66.90
74809;DHT22;63338;39.544;2.596;2023-02-22T10:30:40;21.60;67.30
74809;DHT22;63338;39.544;2.596;2023-02-22T10:33:17;21.40;67.80
74809;DHT22;63338;39.544;2.596;2023-02-22T10:35:46;20.90;69.80
74809;DHT22;63338;39.544;2.596;2023-02-22T10:38:22;20.50;70.60
74809;DHT22;63338;39.544;2.596;2023-02-22T10:41:54;20.30;71.60
74809;DHT22;63338;39.544;2.596;2023-02-22T10:43:48;20.20;71.60
74809;DHT22;63338;39.544;2.596;2023-02-22T10:46:16;19.80;72.10
74809;DHT22;63338;39.544;2.596;2023-02-22T10:48:50;19.50;73.10
74809;DHT22;63338;39.544;2.596;2023-02-22T10:51:17;19.20;73.40
74809;DHT22;63338;39.544;2.596;2023-02-22T10:53:45;19.50;73.50
74809;DHT22;63338;39.544;2.596;2023-02-22T10:56:20;20.00;72.70
74809;DHT22;63338;39.544;2.596;2023-02-22T11:04:18;21.80;66.70
74809;DHT22;63338;39.544;2.596;2023-02-22T11:07:26;22.30;65.70
74809;DHT22;63338;39.544;2.596;2023-02-22T11:10:04;22.70;64.70
74809;DHT22;63338;39.544;2.596;2023-02-22T11:17:50;22.70;63.90
74809;DHT22;63338;39.544;2.596;2023-02-22T11:20:22;22.80;64.10
74809;DHT22;63338;39.544;2.596;2023-02-22T11:22:56;22.80;63.80
74809;DHT22;63338;39.544;2.596;2023-02-22T11:25:39;23.00;63.60
74809;DHT22;63338;39.544;2.596;2023-02-22T11:28:17;23.10;63.60
74809;DHT22;63338;39.544;2.596;2023-02-22T11:30:48;23.30;63.00
74809;DHT22;63338;39.544;2.596;2023-02-22T11:33:19;23.50;62.90
74809;DHT22;63338;39.544;2.596;2023-02-22T11:38:20;23.60;62.60
74809;DHT22;63338;39.544;2.596;2023-02-22T11:43:30;23.50;62.20
74809;DHT22;63338;39.544;2.596;2023-02-22T11:46:12;23.60;61.70
74809;DHT22;63338;39.544;2.596;2023-02-22T11:48:43;23.70;61.00
74809;DHT22;63338;39.544;2.596;2023-02-22T11:51:40;23.70;61.20
74809;DHT22;63338;39.544;2.596;2023-02-22T11:54:28;23.80;61.20
74809;DHT22;63338;39.544;2.596;2023-02-22T11:57:26;23.90;60.90
74809;DHT22;63338;39.544;2.596;2023-02-22T12:00:05;23.90;61.10
74809;DHT22;63338;39.544;2.596;2023-02-22T12:08:09;23.40;62.30
74809;DHT22;63338;39.544;2.596;2023-02-22T12:13:29;23.30;62.40
74809;DHT22;63338;39.544;2.596;2023-02-22T12:16:20;23.30;62.30
74809;DHT22;63338;39.544;2.596;2023-02-22T12:21:53;23.10;62.30
74809;DHT22;63338;39.544;2.596;2023-02-22T12:24:45;22.80;62.90
74809;DHT22;63338;39.544;2.596;2023-02-22T12:27:38;22.20;63.80
74809;DHT22;63338;39.544;2.596;2023-02-22T12:30:23;21.80;64.80
74809;DHT22;63338;39.544;2.596;2023-02-22T12:32:54;21.50;65.70
74809;DHT22;63338;39.544;2.596;2023-02-22T12:35:32;20.90;66.40
74809;DHT22;63338;39.544;2.596;2023-02-22T12:38:08;20.50;68.70
74809;DHT22;63338;39.544;2.596;2023-02-22T12:41:32;20.00;69.70
74809;DHT22;63338;39.544;2.596;2023-02-22T12:46:19;19.60;71.10
74809;DHT22;63338;39.544;2.596;2023-02-22T12:48:59;19.50;71.10
74809;DHT22;63338;39.544;2.596;2023-02-22T12:52:02;19.30;71.70
74809;DHT22;63338;39.544;2.596;2023-02-22T12:54:46;19.10;72.30
74809;DHT22;63338;39.544;2.596;2023-02-22T12:57:19;19.00;73.10
74809;DHT22;63338;39.544;2.596;2023-02-22T13:02:49;18.60;74.20
74809;DHT22;63338;39.544;2.596;2023-02-22T13:05:23;18.60;74.50
74809;DHT22;63338;39.544;2.596;2023-02-22T13:24:05;18.60;74.80
74809;DHT22;63338;39.544;2.596;2023-02-22T13:26:44;18.80;74.40
74809;DHT22;63338;39.544;2.596;2023-02-22T13:29:14;18.80;74.20
74809;DHT22;63338;39.544;2.596;2023-02-22T13:35:11;18.60;74.80
74809;DHT22;63338;39.544;2.596;2023-02-22T13:37:55;18.40;75.10
74809;DHT22;63338;39.544;2.596;2023-02-22T13:43:27;18.10;77.60
74809;DHT22;63338;39.544;2.596;2023-02-22T13:53:59;17.70;79.00
74809;DHT22;63338;39.544;2.596;2023-02-22T13:56:27;17.80;78.90
74809;DHT22;63338;39.544;2.596;2023-02-22T13:58:59;17.70;79.00
74809;DHT22;63338;39.544;2.596;2023-02-22T14:01:45;17.70;79.10
74809;DHT22;63338;39.544;2.596;2023-02-22T14:06:54;17.60;79.40
74809;DHT22;63338;39.544;2.596;2023-02-22T14:09:55;17.60;79.40
74809;DHT22;63338;39.544;2.596;2023-02-22T14:17:48;17.30;80.20
74809;DHT22;63338;39.544;2.596;2023-02-22T14:20:19;17.40;80.30
74809;DHT22;63338;39.544;2.596;2023-02-22T14:22:50;17.20;81.10
74809;DHT22;63338;39.544;2.596;2023-02-22T14:25:39;17.20;81.00
74809;DHT22;63338;39.544;2.596;2023-02-22T14:28:33;17.30;81.10
74809;DHT22;63338;39.544;2.596;2023-02-22T14:39:37;17.40;81.50
74809;DHT22;63338;39.544;2.596;2023-02-22T14:44:43;17.50;81.40
74809;DHT22;63338;39.544;2.596;2023-02-22T14:48:18;17.50;81.30
74809;DHT22;63338;39.544;2.596;2023-02-22T14:50:42;17.50;81.00
74809;DHT22;63338;39.544;2.596;2023-02-22T14:53:27;17.50;81.20
74809;DHT22;63338;39.544;2.596;2023-02-22T14:55:59;17.50;81.30
74809;DHT22;63338;39.544;2.596;2023-02-22T14:59:01;17.40;81.00
74809;DHT22;63338;39.544;2.596;2023-02-22T15:01:36;17.30;81.50
74809;DHT22;63338;39.544;2.596;2023-02-22T15:06:47;17.30;81.70
74809;DHT22;63338;39.544;2.596;2023-02-22T15:09:23;17.40;81.70
74809;DHT22;63338;39.544;2.596;2023-02-22T15:11:50;17.40;81.50
74809;DHT22;63338;39.544;2.596;2023-02-22T15:14:20;17.20;81.70
74809;DHT22;63338;39.544;2.596;2023-02-22T15:16:50;17.10;82.20
74809;DHT22;63338;39.544;2.596;2023-02-22T15:19:26;17.00;82.40
74809;DHT22;63338;39.544;2.596;2023-02-22T15:21:55;16.90;82.80
74809;DHT22;63338;39.544;2.596;2023-02-22T15:24:29;16.90;83.30
74809;DHT22;63338;39.544;2.596;2023-02-22T15:27:05;16.70;83.70
74809;DHT22;63338;39.544;2.596;2023-02-22T15:29:36;16.80;83.70
74809;DHT22;63338;39.544;2.596;2023-02-22T15:34:52;16.80;83.60
74809;DHT22;63338;39.544;2.596;2023-02-22T15:37:23;16.80;83.60
74809;DHT22;63338;39.544;2.596;2023-02-22T15:39:52;16.80;83.50
74809;DHT22;63338;39.544;2.596;2023-02-22T15:42:30;16.70;83.40
74809;DHT22;63338;39.544;2.596;2023-02-22T15:44:56;16.70;83.20
74809;DHT22;63338;39.544;2.596;2023-02-22T15:47:28;16.80;82.70
74809;DHT22;63338;39.544;2.596;2023-02-22T15:52:52;17.10;82.30
74809;DHT22;63338;39.544;2.596;2023-02-22T15:55:22;17.10;81.50
74809;DHT22;63338;39.544;2.596;2023-02-22T15:57:49;17.10;82.20
74809;DHT22;63338;39.544;2.596;2023-02-22T16:00:43;17.10;82.30
74809;DHT22;63338;39.544;2.596;2023-02-22T16:03:19;17.10;82.30
74809;DHT22;63338;39.544;2.596;2023-02-22T16:05:54;17.20;81.80
74809;DHT22;63338;39.544;2.596;2023-02-22T16:08:38;17.10;81.30
74809;DHT22;63338;39.544;2.596;2023-02-22T16:11:10;17.20;80.90
74809;DHT22;63338;39.544;2.596;2023-02-22T16:13:51;17.10;79.90
74809;DHT22;63338;39.544;2.596;2023-02-22T16:18:50;17.20;78.10
74809;DHT22;63338;39.544;2.596;2023-02-22T16:21:21;17.20;78.40
74809;DHT22;63338;39.544;2.596;2023-02-22T16:23:54;17.10;78.90
74809;DHT22;63338;39.544;2.596;2023-02-22T16:26:24;17.20;78.90
74809;DHT22;63338;39.544;2.596;2023-02-22T16:28:58;17.20;78.70
74809;DHT22;63338;39.544;2.596;2023-02-22T16:31:27;17.20;78.70
74809;DHT22;63338;39.544;2.596;2023-02-22T16:33:55;17.10;79.00
74809;DHT22;63338;39.544;2.596;2023-02-22T16:36:34;17.10;79.20
74809;DHT22;63338;39.544;2.596;2023-02-22T16:39:03;17.10;79.90
74809;DHT22;63338;39.544;2.596;2023-02-22T16:41:32;17.10;80.20
74809;DHT22;63338;39.544;2.596;2023-02-22T16:43:58;17.00;80.50
74809;DHT22;63338;39.544;2.596;2023-02-22T16:46:25;16.90;80.70
74809;DHT22;63338;39.544;2.596;2023-02-22T16:48:51;16.80;80.80
74809;DHT22;63338;39.544;2.596;2023-02-22T16:51:18;16.80;80.80
74809;DHT22;63338;39.544;2.596;2023-02-22T16:53:45;16.80;81.30
74809;DHT22;63338;39.544;2.596;2023-02-22T16:56:13;16.70;81.40
74809;DHT22;63338;39.544;2.596;2023-02-22T16:58:41;16.70;81.50
74809;DHT22;63338;39.544;2.596;2023-02-22T17:01:08;16.70;81.40
74809;DHT22;63338;39.544;2.596;2023-02-22T17:03:34;16.60;81.50
74809;DHT22;63338;39.544;2.596;2023-02-22T17:06:00;16.60;81.70
74809;DHT22;63338;39.544;2.596;2023-02-22T17:08:26;16.50;81.80
74809;DHT22;63338;39.544;2.596;2023-02-22T17:10:53;16.50;82.00
74809;DHT22;63338;39.544;2.596;2023-02-22T17:13:23;16.40;82.10
74809;DHT22;63338;39.544;2.596;2023-02-22T17:15:50;16.30;82.10
74809;DHT22;63338;39.544;2.596;2023-02-22T17:18:23;16.30;82.30
74809;DHT22;63338;39.544;2.596;2023-02-22T17:20:51;16.30;82.40
74809;DHT22;63338;39.544;2.596;2023-02-22T17:23:18;16.30;82.50
74809;DHT22;63338;39.544;2.596;2023-02-22T17:25:53;16.30;82.40
74809;DHT22;63338;39.544;2.596;2023-02-22T17:28:21;16.30;82.70
74809;DHT22;63338;39.544;2.596;2023-02-22T17:30:49;16.10;83.90
74809;DHT22;63338;39.544;2.596;2023-02-22T17:33:26;16.20;84.00
74809;DHT22;63338;39.544;2.596;2023-02-22T17:35:54;16.10;84.00
74809;DHT22;63338;39.544;2.596;2023-02-22T17:38:21;16.00;83.80
74809;DHT22;63338;39.544;2.596;2023-02-22T17:40:47;16.10;83.80
74809;DHT22;63338;39.544;2.596;2023-02-22T17:43:14;15.90;83.70
74809;DHT22;63338;39.544;2.596;2023-02-22T17:45:41;15.80;83.40
74809;DHT22;63338;39.544;2.596;2023-02-22T17:48:15;15.80;83.50
74809;DHT22;63338;39.544;2.596;2023-02-22T17:50:43;15.80;83.40
74809;DHT22;63338;39.544;2.596;2023-02-22T17:53:11;15.70;83.60
74809;DHT22;63338;39.544;2.596;2023-02-22T17:55:39;15.70;83.60
74809;DHT22;63338;39.544;2.596;2023-02-22T17:58:07;15.60;83.70
74809;DHT22;63338;39.544;2.596;2023-02-22T18:00:42;15.50;83.70
74809;DHT22;63338;39.544;2.596;2023-02-22T18:03:14;15.50;83.80
74809;DHT22;63338;39.544;2.596;2023-02-22T18:05:46;15.40;85.10
74809;DHT22;63338;39.544;2.596;2023-02-22T18:08:13;15.30;85.10
74809;DHT22;63338;39.544;2.596;2023-02-22T18:10:40;15.20;85.50
74809;DHT22;63338;39.544;2.596;2023-02-22T18:13:08;15.20;85.30
74809;DHT22;63338;39.544;2.596;2023-02-22T18:15:34;15.10;85.50
74809;DHT22;63338;39.544;2.596;2023-02-22T18:18:02;15.00;85.60